Flight Briefing for CPX18

Departure Arrival
Ted Stevens Anchorage International Airport (PANC)
Click to view FAA NOTAMS
Taiwan Taoyuan International Airport (RCTP)
Click to view FAA NOTAMS
Departure Time Arrival Time
N/A N/A
Aircraft Distance
MD-11SF 4065nm
Departure METAR Arrival METAR
PANC 180553Z 18009G16KT 10SM FEW012 OVC020 03/M01 A2983 RMK AO2 RAE47SNE13B32E47 SLP105 VIRGA ALQDS 4/018 P0002 60004 T00281006 10033 21028 53017 RCTP 180600Z 01008KT 330V040 9999 SCT003 BKN005 BKN008 20/19 Q1014 NOSIG RMK A2996
Suggested Route
NODLE R220 NANNO ALICE Y111 MQE Y124 GTC Y12 KEC A1 AISAR A1 DRAKE DRAKE1A


View recent IFR Routes data
Notes



Charts and Procedures

Charts for PANC
No chart available
Charts for RCTP
No chart available

Ventusky Weather